La Esperanza, Honduras
Current Conditions -  °F | °C
As of 3:58 PM on Tuesday 25 Nov 2014 (Local Time) from MHSC Reporting Station
Scattered Clouds Scattered Clouds  
Wind Chill: 83°   Ceiling: Unl
Heat Index: 89°   Visibility: 6mi
Dew Point: 73°   Wind: 12mph
Humidity: 71%   Direction: 350°N
Pressure: 29.89"   Gusts: NA
Location:  14.31°N, 88.18°W
Report Text: MHSC 252158Z AUTO 35010KT 9999 FEW060 SCT080 28/23 A2989 RMK AO2 SLP084 T02830227 $
Loading
Personal Weather Stations






























Interactive Weather Map New forecast layout! Learn more

10-Day Weather Forecast

Advertisements
Track Severe Weather on mobile